DAL1386 KATL-KMIA
Flight info
| Callsign | DAL1386 |
|---|---|
| Flight time | 1h 20m |
| Altitude | 35000 |
| Route | BANNG3 LUCKK HONID FROGZ5 |
| Aircraft | A321/M-SDE3FGHIRWY/LB1 |
Departure
| Time | 2026-05-06 16:22 |
|---|---|
| Airport | Hartsfield Jackson Atlanta International Airport (KATL) |
Arrival
| Time | 2026-05-06 17:42 |
|---|---|
| Airport | Miami International Airport (KMIA) |
| Time | Latitude | Longitude | Altitude | Speed | Heading |
|---|---|---|---|---|---|
| 2026-05-06 15:54 | 33.63790 | -84.44195 | 1036 ft | 0 kts | 270° |
| 2026-05-06 16:10 | 33.63790 | -84.44182 | 1036 ft | 4 kts | 269° |
| 2026-05-06 16:10 | 33.63790 | -84.44150 | 1036 ft | 3 kts | 271° |
| 2026-05-06 16:11 | 33.63792 | -84.44125 | 1036 ft | 4 kts | 236° |
| 2026-05-06 16:11 | 33.63808 | -84.44114 | 1036 ft | 4 kts | 173° |
| 2026-05-06 16:11 | 33.63833 | -84.44118 | 1035 ft | 1 kts | 180° |
| 2026-05-06 16:13 | 33.63822 | -84.44118 | 1036 ft | 5 kts | 180° |
| 2026-05-06 16:13 | 33.63774 | -84.44118 | 1036 ft | 6 kts | 180° |
| 2026-05-06 16:14 | 33.63746 | -84.44118 | 1036 ft | 0 kts | 180° |
| 2026-05-06 16:14 | 33.63744 | -84.44118 | 1036 ft | 1 kts | 180° |
| 2026-05-06 16:14 | 33.63728 | -84.44118 | 1036 ft | 4 kts | 180° |
| 2026-05-06 16:14 | 33.63685 | -84.44110 | 1036 ft | 9 kts | 153° |
| 2026-05-06 16:15 | 33.63675 | -84.44099 | 1036 ft | 3 kts | 129° |
| 2026-05-06 16:15 | 33.63651 | -84.44074 | 1036 ft | 6 kts | 146° |
| 2026-05-06 16:15 | 33.63602 | -84.44039 | 1036 ft | 7 kts | 147° |
| 2026-05-06 16:15 | 33.63582 | -84.43970 | 1036 ft | 11 kts | 93° |
| 2026-05-06 16:16 | 33.63582 | -84.43858 | 1036 ft | 15 kts | 90° |
| 2026-05-06 16:16 | 33.63582 | -84.43723 | 1036 ft | 15 kts | 90° |
| 2026-05-06 16:16 | 33.63582 | -84.43581 | 1035 ft | 19 kts | 90° |
| 2026-05-06 16:16 | 33.63582 | -84.43401 | 1034 ft | 24 kts | 89° |
| 2026-05-06 16:17 | 33.63582 | -84.43233 | 1035 ft | 16 kts | 90° |
| 2026-05-06 16:17 | 33.63583 | -84.43082 | 1035 ft | 20 kts | 90° |
| 2026-05-06 16:17 | 33.63582 | -84.42904 | 1035 ft | 18 kts | 90° |
| 2026-05-06 16:17 | 33.63581 | -84.42751 | 1036 ft | 20 kts | 89° |
| 2026-05-06 16:18 | 33.63582 | -84.42572 | 1036 ft | 23 kts | 90° |
| 2026-05-06 16:18 | 33.63582 | -84.42380 | 1036 ft | 19 kts | 90° |
| 2026-05-06 16:18 | 33.63582 | -84.42214 | 1036 ft | 20 kts | 90° |
| 2026-05-06 16:18 | 33.63582 | -84.42036 | 1036 ft | 16 kts | 89° |
| 2026-05-06 16:19 | 33.63582 | -84.41892 | 1035 ft | 12 kts | 90° |
| 2026-05-06 16:19 | 33.63582 | -84.41778 | 1035 ft | 16 kts | 89° |
| 2026-05-06 16:19 | 33.63583 | -84.41632 | 1035 ft | 20 kts | 90° |
| 2026-05-06 16:19 | 33.63582 | -84.41482 | 1034 ft | 19 kts | 90° |
| 2026-05-06 16:20 | 33.63583 | -84.41305 | 1035 ft | 23 kts | 89° |
| 2026-05-06 16:20 | 33.63582 | -84.41121 | 1035 ft | 16 kts | 90° |
| 2026-05-06 16:20 | 33.63582 | -84.40978 | 1035 ft | 12 kts | 92° |
| 2026-05-06 16:20 | 33.63530 | -84.40911 | 1036 ft | 13 kts | 165° |
| 2026-05-06 16:21 | 33.63474 | -84.40946 | 1036 ft | 6 kts | 247° |
| 2026-05-06 16:21 | 33.63469 | -84.41034 | 1035 ft | 20 kts | 269° |
| 2026-05-06 16:21 | 33.63469 | -84.41462 | 1035 ft | 83 kts | 269° |
| 2026-05-06 16:21 | 33.63474 | -84.42370 | 1037 ft | 132 kts | 269° |
| 2026-05-06 16:22 | 33.63472 | -84.43630 | 1098 ft | 164 kts | 270° |
| 2026-05-06 16:22 | 33.63451 | -84.44968 | 1743 ft | 158 kts | 266° |
| 2026-05-06 16:22 | 33.63419 | -84.46282 | 2343 ft | 158 kts | 264° |
| 2026-05-06 16:22 | 33.63417 | -84.47613 | 2830 ft | 164 kts | 265° |
| 2026-05-06 16:23 | 33.63419 | -84.49064 | 3020 ft | 184 kts | 265° |
| 2026-05-06 16:23 | 33.63420 | -84.50677 | 3153 ft | 202 kts | 267° |
| 2026-05-06 16:23 | 33.63424 | -84.52451 | 3276 ft | 225 kts | 267° |
| 2026-05-06 16:23 | 33.63428 | -84.54427 | 3524 ft | 249 kts | 268° |
| 2026-05-06 16:24 | 33.63431 | -84.56523 | 4305 ft | 252 kts | 268° |
| 2026-05-06 16:24 | 33.63436 | -84.58643 | 5160 ft | 255 kts | 269° |
| 2026-05-06 16:24 | 33.63442 | -84.60787 | 6013 ft | 257 kts | 268° |
| 2026-05-06 16:24 | 33.63385 | -84.62929 | 6847 ft | 257 kts | 259° |
| 2026-05-06 16:25 | 33.62778 | -84.64931 | 7594 ft | 258 kts | 238° |
| 2026-05-06 16:25 | 33.61506 | -84.66467 | 8305 ft | 265 kts | 214° |
| 2026-05-06 16:25 | 33.59757 | -84.67168 | 9024 ft | 277 kts | 189° |
| 2026-05-06 16:25 | 33.57810 | -84.66825 | 9731 ft | 291 kts | 168° |
| 2026-05-06 16:26 | 33.55871 | -84.66047 | 10283 ft | 301 kts | 167° |
| 2026-05-06 16:26 | 33.53811 | -84.65213 | 10410 ft | 323 kts | 167° |
| 2026-05-06 16:26 | 33.51616 | -84.64324 | 10625 ft | 341 kts | 167° |
| 2026-05-06 16:26 | 33.49343 | -84.63399 | 11165 ft | 347 kts | 167° |
| 2026-05-06 16:27 | 33.47042 | -84.62463 | 11799 ft | 352 kts | 167° |
| 2026-05-06 16:27 | 33.44703 | -84.61517 | 12440 ft | 357 kts | 167° |
| 2026-05-06 16:27 | 33.42338 | -84.60564 | 13079 ft | 361 kts | 167° |
| 2026-05-06 16:27 | 33.39942 | -84.59604 | 13694 ft | 365 kts | 167° |
| 2026-05-06 16:28 | 33.37518 | -84.58633 | 14235 ft | 370 kts | 167° |
| 2026-05-06 16:28 | 33.35060 | -84.57646 | 14763 ft | 375 kts | 167° |
| 2026-05-06 16:28 | 33.32573 | -84.56647 | 15339 ft | 380 kts | 167° |
| 2026-05-06 16:28 | 33.30052 | -84.55639 | 15919 ft | 385 kts | 167° |
| 2026-05-06 16:29 | 33.27491 | -84.54618 | 16488 ft | 390 kts | 168° |
| 2026-05-06 16:29 | 33.24906 | -84.53590 | 17009 ft | 394 kts | 167° |
| 2026-05-06 16:29 | 33.22288 | -84.52549 | 17522 ft | 399 kts | 167° |
| 2026-05-06 16:29 | 33.19641 | -84.51495 | 18038 ft | 403 kts | 167° |
| 2026-05-06 16:30 | 33.16966 | -84.50428 | 18521 ft | 407 kts | 168° |
| 2026-05-06 16:30 | 33.16093 | -84.50080 | 18658 ft | 409 kts | 168° |
| 2026-05-06 16:30 | 33.11537 | -84.48264 | 19418 ft | 415 kts | 168° |
| 2026-05-06 16:30 | 33.08786 | -84.47172 | 19860 ft | 418 kts | 168° |
| 2026-05-06 16:31 | 33.06013 | -84.46072 | 20291 ft | 422 kts | 168° |
| 2026-05-06 16:31 | 33.04165 | -84.45338 | 20583 ft | 424 kts | 167° |
| 2026-05-06 16:31 | 33.01358 | -84.44220 | 21011 ft | 428 kts | 167° |
| 2026-05-06 16:31 | 32.98524 | -84.43095 | 21435 ft | 430 kts | 169° |
| 2026-05-06 16:32 | 32.95621 | -84.42287 | 21843 ft | 426 kts | 179° |
| 2026-05-06 16:32 | 32.92685 | -84.42042 | 22249 ft | 422 kts | 186° |
| 2026-05-06 16:32 | 32.89736 | -84.41995 | 22664 ft | 425 kts | 186° |
| 2026-05-06 16:32 | 32.86759 | -84.41949 | 23060 ft | 429 kts | 186° |
| 2026-05-06 16:33 | 32.83764 | -84.41900 | 23456 ft | 432 kts | 186° |
| 2026-05-06 16:33 | 32.80743 | -84.41845 | 23818 ft | 436 kts | 186° |
| 2026-05-06 16:33 | 32.77702 | -84.41785 | 24158 ft | 439 kts | 186° |
| 2026-05-06 16:34 | 32.71560 | -84.41658 | 24796 ft | 444 kts | 186° |
| 2026-05-06 16:34 | 32.68462 | -84.41596 | 25115 ft | 447 kts | 186° |
| 2026-05-06 16:34 | 32.65345 | -84.41532 | 25449 ft | 449 kts | 186° |
| 2026-05-06 16:34 | 32.62206 | -84.41470 | 25763 ft | 452 kts | 187° |
| 2026-05-06 16:35 | 32.59052 | -84.41409 | 26095 ft | 455 kts | 187° |
| 2026-05-06 16:35 | 32.55881 | -84.41350 | 26408 ft | 457 kts | 187° |
| 2026-05-06 16:35 | 32.52688 | -84.41287 | 26721 ft | 460 kts | 187° |
| 2026-05-06 16:35 | 32.49481 | -84.41221 | 27022 ft | 463 kts | 187° |
| 2026-05-06 16:36 | 32.46255 | -84.41154 | 27332 ft | 465 kts | 187° |
| 2026-05-06 16:36 | 32.43011 | -84.41086 | 27634 ft | 467 kts | 187° |
| 2026-05-06 16:36 | 32.39751 | -84.41019 | 27939 ft | 470 kts | 187° |
| 2026-05-06 16:36 | 32.36472 | -84.40953 | 28233 ft | 472 kts | 187° |
| 2026-05-06 16:37 | 32.33173 | -84.40889 | 28523 ft | 475 kts | 187° |
| 2026-05-06 16:37 | 32.29864 | -84.40827 | 28813 ft | 477 kts | 187° |
| 2026-05-06 16:37 | 32.26537 | -84.40763 | 29084 ft | 479 kts | 187° |
| 2026-05-06 16:37 | 32.23197 | -84.40696 | 29344 ft | 482 kts | 187° |
| 2026-05-06 16:38 | 32.19837 | -84.40627 | 29615 ft | 484 kts | 187° |
| 2026-05-06 16:38 | 32.16461 | -84.40558 | 29888 ft | 486 kts | 187° |
| 2026-05-06 16:38 | 32.13070 | -84.40489 | 30137 ft | 488 kts | 187° |
| 2026-05-06 16:38 | 32.09666 | -84.40416 | 30359 ft | 490 kts | 187° |
| 2026-05-06 16:39 | 32.06250 | -84.40339 | 30592 ft | 492 kts | 187° |
| 2026-05-06 16:39 | 32.02825 | -84.40263 | 30831 ft | 493 kts | 187° |
| 2026-05-06 16:39 | 31.99392 | -84.40188 | 31139 ft | 493 kts | 187° |
| 2026-05-06 16:39 | 31.95962 | -84.40119 | 31474 ft | 492 kts | 187° |
| 2026-05-06 16:40 | 31.92537 | -84.40055 | 31794 ft | 492 kts | 187° |
| 2026-05-06 16:40 | 31.89117 | -84.39990 | 32112 ft | 492 kts | 187° |
| 2026-05-06 16:40 | 31.85702 | -84.39924 | 32417 ft | 492 kts | 188° |
| 2026-05-06 16:40 | 31.82283 | -84.39858 | 32724 ft | 491 kts | 188° |
| 2026-05-06 16:41 | 31.78857 | -84.39790 | 33038 ft | 491 kts | 188° |
| 2026-05-06 16:41 | 31.75437 | -84.39719 | 33365 ft | 491 kts | 188° |
| 2026-05-06 16:41 | 31.72019 | -84.39647 | 33666 ft | 491 kts | 188° |
| 2026-05-06 16:41 | 31.68603 | -84.39575 | 33973 ft | 491 kts | 188° |
| 2026-05-06 16:42 | 31.65178 | -84.39421 | 34245 ft | 497 kts | 183° |
| 2026-05-06 16:42 | 31.61728 | -84.38764 | 34509 ft | 506 kts | 176° |
| 2026-05-06 16:42 | 31.58295 | -84.37891 | 34764 ft | 506 kts | 176° |
| 2026-05-06 16:42 | 31.54846 | -84.37012 | 35013 ft | 506 kts | 176° |
| 2026-05-06 16:43 | 31.51402 | -84.36136 | 35102 ft | 504 kts | 176° |
| 2026-05-06 16:43 | 31.44593 | -84.34395 | 35122 ft | 499 kts | 176° |
| 2026-05-06 16:44 | 31.37809 | -84.32688 | 35106 ft | 499 kts | 176° |
| 2026-05-06 16:44 | 31.31021 | -84.30990 | 35112 ft | 499 kts | 176° |
| 2026-05-06 16:45 | 31.24224 | -84.29287 | 35119 ft | 500 kts | 176° |
| 2026-05-06 16:45 | 31.17425 | -84.27572 | 35115 ft | 500 kts | 176° |
| 2026-05-06 16:46 | 31.10623 | -84.25857 | 35107 ft | 500 kts | 176° |
| 2026-05-06 16:46 | 31.03814 | -84.24145 | 35098 ft | 500 kts | 176° |
| 2026-05-06 16:47 | 30.97014 | -84.22448 | 35087 ft | 500 kts | 176° |
| 2026-05-06 16:47 | 30.90202 | -84.20754 | 35090 ft | 500 kts | 176° |
| 2026-05-06 16:48 | 30.83390 | -84.19050 | 35086 ft | 501 kts | 176° |
| 2026-05-06 16:48 | 30.76578 | -84.17345 | 35086 ft | 501 kts | 176° |
| 2026-05-06 16:49 | 30.69753 | -84.15645 | 35080 ft | 501 kts | 176° |
| 2026-05-06 16:49 | 30.62927 | -84.13953 | 35075 ft | 501 kts | 176° |
| 2026-05-06 16:50 | 30.56101 | -84.12268 | 35080 ft | 502 kts | 176° |
| 2026-05-06 16:50 | 30.49268 | -84.10578 | 35087 ft | 502 kts | 176° |
| 2026-05-06 16:51 | 30.42432 | -84.08887 | 35083 ft | 502 kts | 176° |
| 2026-05-06 16:51 | 30.35702 | -84.06429 | 35088 ft | 516 kts | 160° |
| 2026-05-06 16:52 | 30.29401 | -84.02324 | 35086 ft | 520 kts | 155° |
| 2026-05-06 16:52 | 30.23121 | -83.98149 | 35091 ft | 521 kts | 155° |
| 2026-05-06 16:53 | 30.16829 | -83.93996 | 35102 ft | 521 kts | 155° |
| 2026-05-06 16:53 | 30.10536 | -83.89839 | 35113 ft | 521 kts | 155° |
| 2026-05-06 16:54 | 30.04243 | -83.85684 | 35119 ft | 521 kts | 155° |
| 2026-05-06 16:54 | 29.97948 | -83.81527 | 35122 ft | 521 kts | 155° |
| 2026-05-06 16:55 | 29.91654 | -83.77381 | 35122 ft | 521 kts | 155° |
| 2026-05-06 16:55 | 29.85355 | -83.73239 | 35122 ft | 521 kts | 155° |
| 2026-05-06 16:56 | 29.79049 | -83.69114 | 35116 ft | 521 kts | 155° |
| 2026-05-06 16:56 | 29.72783 | -83.65007 | 35114 ft | 521 kts | 155° |
| 2026-05-06 16:57 | 29.66477 | -83.60876 | 35111 ft | 521 kts | 155° |
| 2026-05-06 16:57 | 29.60171 | -83.56753 | 35115 ft | 521 kts | 155° |
| 2026-05-06 16:58 | 29.53862 | -83.52645 | 35112 ft | 521 kts | 155° |
| 2026-05-06 16:58 | 29.47552 | -83.48529 | 35116 ft | 521 kts | 155° |
| 2026-05-06 16:59 | 29.41252 | -83.44413 | 35113 ft | 521 kts | 155° |
| 2026-05-06 16:59 | 29.34941 | -83.40305 | 35114 ft | 521 kts | 155° |
| 2026-05-06 17:00 | 29.28623 | -83.36220 | 35112 ft | 521 kts | 155° |
| 2026-05-06 17:00 | 29.22177 | -83.32509 | 35111 ft | 517 kts | 161° |
| 2026-05-06 17:01 | 29.15600 | -83.29172 | 35108 ft | 517 kts | 161° |
| 2026-05-06 17:01 | 29.09022 | -83.25840 | 35108 ft | 517 kts | 161° |
| 2026-05-06 17:02 | 29.02439 | -83.22503 | 35105 ft | 518 kts | 161° |
| 2026-05-06 17:02 | 28.95853 | -83.19166 | 35106 ft | 518 kts | 161° |
| 2026-05-06 17:03 | 28.89267 | -83.15842 | 35100 ft | 518 kts | 161° |
| 2026-05-06 17:03 | 28.82672 | -83.12521 | 35116 ft | 518 kts | 161° |
| 2026-05-06 17:04 | 28.76075 | -83.09196 | 35116 ft | 519 kts | 161° |
| 2026-05-06 17:04 | 28.69470 | -83.05876 | 35113 ft | 518 kts | 161° |
| 2026-05-06 17:05 | 28.62878 | -83.02560 | 35111 ft | 518 kts | 161° |
| 2026-05-06 17:05 | 28.56292 | -82.99255 | 35109 ft | 517 kts | 161° |
| 2026-05-06 17:06 | 28.49705 | -82.95949 | 35102 ft | 517 kts | 161° |
| 2026-05-06 17:06 | 28.43119 | -82.92654 | 35098 ft | 517 kts | 161° |
| 2026-05-06 17:07 | 28.36532 | -82.89367 | 35103 ft | 517 kts | 161° |
| 2026-05-06 17:07 | 28.29945 | -82.86089 | 35105 ft | 517 kts | 161° |
| 2026-05-06 17:08 | 28.23359 | -82.82816 | 35119 ft | 517 kts | 161° |
| 2026-05-06 17:08 | 28.16774 | -82.79533 | 35116 ft | 517 kts | 161° |
| 2026-05-06 17:09 | 28.10199 | -82.76262 | 35122 ft | 516 kts | 161° |
| 2026-05-06 17:09 | 28.03625 | -82.73007 | 35120 ft | 515 kts | 162° |
| 2026-05-06 17:10 | 27.96828 | -82.70875 | 35121 ft | 502 kts | 176° |
| 2026-05-06 17:10 | 27.91112 | -82.69759 | 35106 ft | 502 kts | 176° |
| 2026-05-06 17:11 | 27.84230 | -82.68415 | 35108 ft | 502 kts | 176° |
| 2026-05-06 17:11 | 27.77356 | -82.67051 | 35092 ft | 501 kts | 176° |
| 2026-05-06 17:12 | 27.70484 | -82.65698 | 35099 ft | 501 kts | 176° |
| 2026-05-06 17:12 | 27.63620 | -82.64356 | 35096 ft | 500 kts | 176° |
| 2026-05-06 17:13 | 27.56760 | -82.63012 | 35106 ft | 500 kts | 176° |
| 2026-05-06 17:13 | 27.49920 | -82.61545 | 35110 ft | 502 kts | 173° |
| 2026-05-06 17:14 | 27.43139 | -82.59574 | 35113 ft | 504 kts | 169° |
| 2026-05-06 17:14 | 27.36387 | -82.57403 | 35107 ft | 504 kts | 169° |
| 2026-05-06 17:15 | 27.29629 | -82.55331 | 35106 ft | 503 kts | 170° |
| 2026-05-06 17:15 | 27.22858 | -82.53369 | 35105 ft | 502 kts | 171° |
| 2026-05-06 17:16 | 27.16101 | -82.51431 | 35102 ft | 501 kts | 171° |
| 2026-05-06 17:16 | 27.09342 | -82.49469 | 35097 ft | 501 kts | 170° |
| 2026-05-06 17:17 | 27.02593 | -82.47503 | 35098 ft | 501 kts | 170° |
| 2026-05-06 17:17 | 26.95790 | -82.45516 | 34834 ft | 512 kts | 169° |
| 2026-05-06 17:17 | 26.92412 | -82.44154 | 34607 ft | 520 kts | 157° |
| 2026-05-06 17:18 | 26.89294 | -82.42072 | 34372 ft | 524 kts | 144° |
| 2026-05-06 17:18 | 26.86492 | -82.39457 | 34137 ft | 524 kts | 140° |
| 2026-05-06 17:18 | 26.83729 | -82.36790 | 33883 ft | 522 kts | 140° |
| 2026-05-06 17:18 | 26.80982 | -82.34150 | 33623 ft | 520 kts | 141° |
| 2026-05-06 17:19 | 26.78245 | -82.31526 | 33356 ft | 516 kts | 141° |
| 2026-05-06 17:19 | 26.75523 | -82.28923 | 33058 ft | 512 kts | 141° |
| 2026-05-06 17:19 | 26.72817 | -82.26337 | 32475 ft | 510 kts | 141° |
| 2026-05-06 17:19 | 26.70127 | -82.23759 | 31910 ft | 508 kts | 141° |
| 2026-05-06 17:20 | 26.67452 | -82.21195 | 31337 ft | 505 kts | 141° |
| 2026-05-06 17:20 | 26.64825 | -82.18679 | 30782 ft | 503 kts | 141° |
| 2026-05-06 17:20 | 26.62140 | -82.16110 | 30230 ft | 500 kts | 141° |
| 2026-05-06 17:20 | 26.59534 | -82.13622 | 29614 ft | 497 kts | 141° |
| 2026-05-06 17:21 | 26.56915 | -82.11124 | 29080 ft | 493 kts | 141° |
| 2026-05-06 17:21 | 26.54318 | -82.08652 | 28524 ft | 488 kts | 141° |
| 2026-05-06 17:21 | 26.51746 | -82.06194 | 28023 ft | 484 kts | 141° |
| 2026-05-06 17:21 | 26.49231 | -82.03718 | 27502 ft | 480 kts | 140° |
| 2026-05-06 17:22 | 26.46765 | -82.01226 | 26997 ft | 476 kts | 139° |
| 2026-05-06 17:22 | 26.44336 | -81.98738 | 26495 ft | 472 kts | 139° |
| 2026-05-06 17:22 | 26.41933 | -81.96276 | 26019 ft | 467 kts | 139° |
| 2026-05-06 17:22 | 26.39540 | -81.93840 | 25549 ft | 463 kts | 139° |
| 2026-05-06 17:23 | 26.37165 | -81.91439 | 25091 ft | 459 kts | 140° |
| 2026-05-06 17:23 | 26.34803 | -81.89063 | 24632 ft | 455 kts | 140° |
| 2026-05-06 17:23 | 26.32466 | -81.86718 | 24174 ft | 451 kts | 140° |
| 2026-05-06 17:23 | 26.30140 | -81.84387 | 23716 ft | 447 kts | 140° |
| 2026-05-06 17:24 | 26.27832 | -81.82079 | 23197 ft | 443 kts | 140° |
| 2026-05-06 17:24 | 26.25567 | -81.79781 | 22740 ft | 438 kts | 136° |
| 2026-05-06 17:24 | 26.23611 | -81.77199 | 22296 ft | 434 kts | 124° |
| 2026-05-06 17:24 | 26.22135 | -81.74315 | 21999 ft | 424 kts | 115° |
| 2026-05-06 17:25 | 26.20858 | -81.71369 | 21533 ft | 421 kts | 115° |
| 2026-05-06 17:25 | 26.19588 | -81.68448 | 21087 ft | 417 kts | 115° |
| 2026-05-06 17:25 | 26.18323 | -81.65549 | 20617 ft | 415 kts | 115° |
| 2026-05-06 17:25 | 26.17069 | -81.62674 | 20182 ft | 412 kts | 115° |
| 2026-05-06 17:26 | 26.15827 | -81.59817 | 19755 ft | 409 kts | 115° |
| 2026-05-06 17:26 | 26.14592 | -81.56975 | 19346 ft | 406 kts | 115° |
| 2026-05-06 17:26 | 26.13369 | -81.54159 | 18953 ft | 402 kts | 114° |
| 2026-05-06 17:26 | 26.12154 | -81.51365 | 18563 ft | 399 kts | 114° |
| 2026-05-06 17:27 | 26.10946 | -81.48597 | 18142 ft | 396 kts | 115° |
| 2026-05-06 17:27 | 26.09745 | -81.45852 | 17698 ft | 393 kts | 115° |
| 2026-05-06 17:27 | 26.08551 | -81.43132 | 17284 ft | 389 kts | 115° |
| 2026-05-06 17:27 | 26.07371 | -81.40445 | 16878 ft | 385 kts | 115° |
| 2026-05-06 17:28 | 26.06202 | -81.37774 | 16449 ft | 382 kts | 115° |
| 2026-05-06 17:28 | 26.05048 | -81.35124 | 16041 ft | 379 kts | 115° |
| 2026-05-06 17:28 | 26.03919 | -81.32527 | 15654 ft | 375 kts | 115° |
| 2026-05-06 17:28 | 26.02786 | -81.29926 | 15266 ft | 372 kts | 115° |
| 2026-05-06 17:29 | 26.01666 | -81.27350 | 14889 ft | 369 kts | 115° |
| 2026-05-06 17:29 | 26.00552 | -81.24796 | 14513 ft | 365 kts | 115° |
| 2026-05-06 17:29 | 25.99445 | -81.22266 | 14163 ft | 362 kts | 115° |
| 2026-05-06 17:29 | 25.98344 | -81.19757 | 13793 ft | 359 kts | 115° |
| 2026-05-06 17:30 | 25.97257 | -81.17272 | 13379 ft | 356 kts | 115° |
| 2026-05-06 17:30 | 25.96182 | -81.14809 | 13038 ft | 351 kts | 115° |
| 2026-05-06 17:30 | 25.95124 | -81.12384 | 12707 ft | 346 kts | 115° |
| 2026-05-06 17:30 | 25.94081 | -81.09994 | 12345 ft | 343 kts | 115° |
| 2026-05-06 17:31 | 25.93043 | -81.07622 | 11971 ft | 340 kts | 115° |
| 2026-05-06 17:31 | 25.92012 | -81.05268 | 11582 ft | 337 kts | 115° |
| 2026-05-06 17:31 | 25.90998 | -81.02935 | 11306 ft | 331 kts | 114° |
| 2026-05-06 17:31 | 25.90068 | -81.00641 | 11187 ft | 320 kts | 113° |
| 2026-05-06 17:32 | 25.89210 | -80.98401 | 11002 ft | 312 kts | 112° |
| 2026-05-06 17:32 | 25.88384 | -80.96188 | 10669 ft | 309 kts | 112° |
| 2026-05-06 17:32 | 25.87560 | -80.93978 | 10259 ft | 310 kts | 112° |
| 2026-05-06 17:32 | 25.86731 | -80.91770 | 9898 ft | 309 kts | 112° |
| 2026-05-06 17:33 | 25.85899 | -80.89579 | 9519 ft | 307 kts | 112° |
| 2026-05-06 17:33 | 25.85068 | -80.87403 | 9143 ft | 305 kts | 112° |
| 2026-05-06 17:33 | 25.84239 | -80.85244 | 8772 ft | 303 kts | 112° |
| 2026-05-06 17:33 | 25.83414 | -80.83102 | 8406 ft | 301 kts | 113° |
| 2026-05-06 17:34 | 25.82595 | -80.80977 | 8047 ft | 298 kts | 113° |
| 2026-05-06 17:34 | 25.81781 | -80.78867 | 7697 ft | 296 kts | 113° |
| 2026-05-06 17:34 | 25.80973 | -80.76771 | 7314 ft | 295 kts | 113° |
| 2026-05-06 17:34 | 25.80172 | -80.74692 | 6976 ft | 292 kts | 113° |
| 2026-05-06 17:35 | 25.79372 | -80.72621 | 6618 ft | 291 kts | 113° |
| 2026-05-06 17:35 | 25.78579 | -80.70565 | 6255 ft | 289 kts | 114° |
| 2026-05-06 17:35 | 25.77794 | -80.68528 | 5893 ft | 286 kts | 113° |
| 2026-05-06 17:36 | 25.77182 | -80.64295 | 5171 ft | 280 kts | 87° |
| 2026-05-06 17:36 | 25.77289 | -80.62122 | 4713 ft | 282 kts | 87° |
| 2026-05-06 17:36 | 25.77390 | -80.59970 | 4401 ft | 277 kts | 87° |
| 2026-05-06 17:36 | 25.77482 | -80.57851 | 4121 ft | 271 kts | 87° |
| 2026-05-06 17:37 | 25.77571 | -80.55802 | 3991 ft | 260 kts | 87° |
| 2026-05-06 17:37 | 25.77656 | -80.53850 | 3883 ft | 247 kts | 87° |
| 2026-05-06 17:37 | 25.77737 | -80.51980 | 3599 ft | 239 kts | 87° |
| 2026-05-06 17:37 | 25.77814 | -80.50195 | 3299 ft | 223 kts | 87° |
| 2026-05-06 17:38 | 25.77885 | -80.48549 | 3052 ft | 205 kts | 87° |
| 2026-05-06 17:38 | 25.77950 | -80.47020 | 2775 ft | 190 kts | 87° |
| 2026-05-06 17:38 | 25.78011 | -80.45610 | 2554 ft | 176 kts | 87° |
| 2026-05-06 17:38 | 25.78066 | -80.44316 | 2323 ft | 159 kts | 87° |
| 2026-05-06 17:39 | 25.78117 | -80.43131 | 2121 ft | 149 kts | 87° |
| 2026-05-06 17:39 | 25.78165 | -80.41996 | 1942 ft | 146 kts | 87° |
| 2026-05-06 17:39 | 25.78213 | -80.40877 | 1756 ft | 144 kts | 87° |
| 2026-05-06 17:39 | 25.78260 | -80.39769 | 1566 ft | 143 kts | 87° |
| 2026-05-06 17:40 | 25.78307 | -80.38666 | 1382 ft | 143 kts | 88° |
| 2026-05-06 17:40 | 25.78353 | -80.37575 | 1199 ft | 143 kts | 88° |
| 2026-05-06 17:40 | 25.78400 | -80.36459 | 1014 ft | 142 kts | 88° |
| 2026-05-06 17:40 | 25.78445 | -80.35381 | 833 ft | 141 kts | 88° |
| 2026-05-06 17:41 | 25.78490 | -80.34301 | 633 ft | 140 kts | 88° |
| 2026-05-06 17:41 | 25.78537 | -80.33230 | 427 ft | 139 kts | 89° |
| 2026-05-06 17:41 | 25.78589 | -80.32162 | 214 ft | 140 kts | 90° |
| 2026-05-06 17:41 | 25.78630 | -80.31083 | 61 ft | 139 kts | 89° |
| 2026-05-06 17:42 | 25.78662 | -80.30065 | 14 ft | 117 kts | 86° |
| 2026-05-06 17:42 | 25.78696 | -80.29395 | 15 ft | 61 kts | 87° |
| 2026-05-06 17:42 | 25.78709 | -80.29022 | 15 ft | 44 kts | 89° |
| 2026-05-06 17:42 | 25.78739 | -80.28778 | 15 ft | 24 kts | 65° |
| 2026-05-06 17:43 | 25.78823 | -80.28676 | 15 ft | 12 kts | 45° |
| 2026-05-06 17:43 | 25.78852 | -80.28646 | 16 ft | 0 kts | 40° |
| 2026-05-06 17:44 | 25.78881 | -80.28619 | 16 ft | 10 kts | 40° |
| 2026-05-06 17:45 | 25.78883 | -80.28558 | 17 ft | 13 kts | 98° |
| 2026-05-06 17:45 | 25.78877 | -80.28465 | 15 ft | 12 kts | 89° |
| 2026-05-06 17:45 | 25.78885 | -80.28358 | 16 ft | 17 kts | 84° |
| 2026-05-06 17:45 | 25.78890 | -80.28213 | 15 ft | 24 kts | 87° |
| 2026-05-06 17:46 | 25.78903 | -80.28071 | 17 ft | 13 kts | 83° |
| 2026-05-06 17:46 | 25.78935 | -80.28002 | 16 ft | 10 kts | 26° |
| 2026-05-06 17:46 | 25.78970 | -80.28006 | 16 ft | 0 kts | 337° |
| 2026-05-06 17:47 | 25.78977 | -80.28000 | 16 ft | 2 kts | 62° |
| 2026-05-06 17:47 | 25.78953 | -80.27957 | 16 ft | 13 kts | 121° |
| 2026-05-06 17:47 | 25.78948 | -80.27856 | 15 ft | 12 kts | 57° |
| 2026-05-06 17:48 | 25.79016 | -80.27815 | 15 ft | 11 kts | 22° |
| 2026-05-06 17:48 | 25.79087 | -80.27784 | 15 ft | 11 kts | 21° |
| 2026-05-06 17:48 | 25.79156 | -80.27772 | 15 ft | 5 kts | 5° |
| 2026-05-06 17:48 | 25.79188 | -80.27768 | 15 ft | 4 kts | 6° |
| 2026-05-06 17:49 | 25.79214 | -80.27763 | 15 ft | 2 kts | 25° |
| 2026-05-06 17:49 | 25.79224 | -80.27746 | 15 ft | 2 kts | 71° |
| 2026-05-06 17:49 | 25.79222 | -80.27729 | 15 ft | 0 kts | 97° |
| 2026-05-06 17:49 | 25.79221 | -80.27725 | 15 ft | 1 kts | 96° |
| 2026-05-06 17:50 | 25.79221 | -80.27717 | 15 ft | 0 kts | 96° |